sensor_id;sensor_type;location;lat;lon;timestamp;temperature;humidity
4406;DHT22;2216;53.806;11.598;2022-07-31T00:00:39;18.00;47.30
4406;DHT22;2216;53.806;11.598;2022-07-31T00:03:05;18.00;47.40
4406;DHT22;2216;53.806;11.598;2022-07-31T00:05:32;18.00;47.40
4406;DHT22;2216;53.806;11.598;2022-07-31T00:07:58;17.90;47.50
4406;DHT22;2216;53.806;11.598;2022-07-31T00:10:24;17.90;47.40
4406;DHT22;2216;53.806;11.598;2022-07-31T00:12:49;17.80;47.40
4406;DHT22;2216;53.806;11.598;2022-07-31T00:15:15;17.80;47.40
4406;DHT22;2216;53.806;11.598;2022-07-31T00:17:42;17.80;47.40
4406;DHT22;2216;53.806;11.598;2022-07-31T00:20:11;17.80;47.50
4406;DHT22;2216;53.806;11.598;2022-07-31T00:22:42;17.70;47.50
4406;DHT22;2216;53.806;11.598;2022-07-31T00:25:09;17.60;47.50
4406;DHT22;2216;53.806;11.598;2022-07-31T00:27:35;17.60;47.50
4406;DHT22;2216;53.806;11.598;2022-07-31T00:30:01;17.60;47.60
4406;DHT22;2216;53.806;11.598;2022-07-31T00:32:26;17.60;47.60
4406;DHT22;2216;53.806;11.598;2022-07-31T00:34:52;17.50;47.60
4406;DHT22;2216;53.806;11.598;2022-07-31T00:37:18;17.50;47.70
4406;DHT22;2216;53.806;11.598;2022-07-31T00:39:43;17.50;47.80
4406;DHT22;2216;53.806;11.598;2022-07-31T00:42:30;17.50;47.70
4406;DHT22;2216;53.806;11.598;2022-07-31T00:44:55;17.40;47.70
4406;DHT22;2216;53.806;11.598;2022-07-31T00:47:21;17.40;47.80
4406;DHT22;2216;53.806;11.598;2022-07-31T00:49:47;17.30;47.80
4406;DHT22;2216;53.806;11.598;2022-07-31T00:52:12;17.30;47.70
4406;DHT22;2216;53.806;11.598;2022-07-31T00:54:39;17.30;47.80
4406;DHT22;2216;53.806;11.598;2022-07-31T00:57:05;17.30;47.90
4406;DHT22;2216;53.806;11.598;2022-07-31T00:59:31;17.20;47.90
4406;DHT22;2216;53.806;11.598;2022-07-31T01:01:57;17.20;47.90
4406;DHT22;2216;53.806;11.598;2022-07-31T01:04:24;17.20;47.90
4406;DHT22;2216;53.806;11.598;2022-07-31T01:06:53;17.20;48.00
4406;DHT22;2216;53.806;11.598;2022-07-31T01:09:19;17.10;48.00
4406;DHT22;2216;53.806;11.598;2022-07-31T01:12:06;17.10;48.00
4406;DHT22;2216;53.806;11.598;2022-07-31T01:14:40;17.10;48.00
4406;DHT22;2216;53.806;11.598;2022-07-31T01:17:10;17.00;48.00
4406;DHT22;2216;53.806;11.598;2022-07-31T01:19:41;17.00;48.10
4406;DHT22;2216;53.806;11.598;2022-07-31T01:31:09;16.90;48.30
4406;DHT22;2216;53.806;11.598;2022-07-31T01:33:43;16.90;48.30
4406;DHT22;2216;53.806;11.598;2022-07-31T01:36:16;16.80;48.30
4406;DHT22;2216;53.806;11.598;2022-07-31T01:38:48;16.80;48.90
4406;DHT22;2216;53.806;11.598;2022-07-31T01:41:17;16.80;48.50
4406;DHT22;2216;53.806;11.598;2022-07-31T01:43:47;16.80;48.70
4406;DHT22;2216;53.806;11.598;2022-07-31T01:46:16;16.80;48.50
4406;DHT22;2216;53.806;11.598;2022-07-31T01:48:44;16.80;48.60
4406;DHT22;2216;53.806;11.598;2022-07-31T01:51:11;16.80;48.50
4406;DHT22;2216;53.806;11.598;2022-07-31T01:53:39;16.90;48.60
4406;DHT22;2216;53.806;11.598;2022-07-31T01:56:08;16.90;48.60
4406;DHT22;2216;53.806;11.598;2022-07-31T01:58:37;16.80;48.50
4406;DHT22;2216;53.806;11.598;2022-07-31T02:01:05;16.90;48.60
4406;DHT22;2216;53.806;11.598;2022-07-31T02:03:34;16.90;48.70
4406;DHT22;2216;53.806;11.598;2022-07-31T02:06:02;16.90;48.80
4406;DHT22;2216;53.806;11.598;2022-07-31T02:08:29;16.90;48.70
4406;DHT22;2216;53.806;11.598;2022-07-31T02:10:56;16.90;48.70
4406;DHT22;2216;53.806;11.598;2022-07-31T02:13:24;16.90;48.80
4406;DHT22;2216;53.806;11.598;2022-07-31T02:15:51;17.00;48.80
4406;DHT22;2216;53.806;11.598;2022-07-31T02:18:19;17.00;48.80
4406;DHT22;2216;53.806;11.598;2022-07-31T02:20:47;17.00;48.80
4406;DHT22;2216;53.806;11.598;2022-07-31T02:23:13;16.90;49.50
4406;DHT22;2216;53.806;11.598;2022-07-31T02:25:40;16.90;48.90
4406;DHT22;2216;53.806;11.598;2022-07-31T02:28:09;16.90;49.00
4406;DHT22;2216;53.806;11.598;2022-07-31T02:30:38;17.00;49.10
4406;DHT22;2216;53.806;11.598;2022-07-31T02:33:07;16.90;48.90
4406;DHT22;2216;53.806;11.598;2022-07-31T02:35:37;17.00;49.00
4406;DHT22;2216;53.806;11.598;2022-07-31T02:38:05;17.00;49.00
4406;DHT22;2216;53.806;11.598;2022-07-31T02:40:31;17.00;48.80
4406;DHT22;2216;53.806;11.598;2022-07-31T02:42:57;17.00;48.80
4406;DHT22;2216;53.806;11.598;2022-07-31T02:45:24;17.00;48.80
4406;DHT22;2216;53.806;11.598;2022-07-31T02:47:49;17.00;48.80
4406;DHT22;2216;53.806;11.598;2022-07-31T02:50:16;16.90;48.80
4406;DHT22;2216;53.806;11.598;2022-07-31T02:52:43;16.90;48.70
4406;DHT22;2216;53.806;11.598;2022-07-31T02:55:09;16.90;48.70
4406;DHT22;2216;53.806;11.598;2022-07-31T02:57:35;16.90;48.80
4406;DHT22;2216;53.806;11.598;2022-07-31T03:00:12;16.90;49.00
4406;DHT22;2216;53.806;11.598;2022-07-31T03:02:50;16.90;49.00
4406;DHT22;2216;53.806;11.598;2022-07-31T03:05:17;16.90;49.00
4406;DHT22;2216;53.806;11.598;2022-07-31T03:07:43;16.90;49.20
4406;DHT22;2216;53.806;11.598;2022-07-31T03:10:09;16.90;49.10
4406;DHT22;2216;53.806;11.598;2022-07-31T03:12:38;16.90;49.10
4406;DHT22;2216;53.806;11.598;2022-07-31T03:15:07;16.90;49.10
4406;DHT22;2216;53.806;11.598;2022-07-31T03:17:36;16.90;49.20
4406;DHT22;2216;53.806;11.598;2022-07-31T03:20:04;17.00;49.30
4406;DHT22;2216;53.806;11.598;2022-07-31T03:22:31;17.00;49.20
4406;DHT22;2216;53.806;11.598;2022-07-31T03:24:58;17.00;49.30
4406;DHT22;2216;53.806;11.598;2022-07-31T03:27:25;17.00;49.30
4406;DHT22;2216;53.806;11.598;2022-07-31T03:29:51;17.00;49.20
4406;DHT22;2216;53.806;11.598;2022-07-31T03:32:16;17.10;49.30
4406;DHT22;2216;53.806;11.598;2022-07-31T03:34:42;17.10;49.40
4406;DHT22;2216;53.806;11.598;2022-07-31T03:37:08;17.10;49.30
4406;DHT22;2216;53.806;11.598;2022-07-31T03:39:34;17.10;49.30
4406;DHT22;2216;53.806;11.598;2022-07-31T03:42:00;17.10;49.30
4406;DHT22;2216;53.806;11.598;2022-07-31T03:44:27;17.10;49.30
4406;DHT22;2216;53.806;11.598;2022-07-31T03:46:53;17.20;49.50
4406;DHT22;2216;53.806;11.598;2022-07-31T03:49:19;17.20;49.50
4406;DHT22;2216;53.806;11.598;2022-07-31T03:51:45;17.20;49.50
4406;DHT22;2216;53.806;11.598;2022-07-31T03:54:11;17.20;49.50
4406;DHT22;2216;53.806;11.598;2022-07-31T03:56:37;17.30;49.50
4406;DHT22;2216;53.806;11.598;2022-07-31T03:59:04;17.30;49.50
4406;DHT22;2216;53.806;11.598;2022-07-31T04:01:30;17.40;49.60
4406;DHT22;2216;53.806;11.598;2022-07-31T04:03:59;17.40;49.60
4406;DHT22;2216;53.806;11.598;2022-07-31T04:06:25;17.40;49.60
4406;DHT22;2216;53.806;11.598;2022-07-31T04:08:51;17.40;49.60
4406;DHT22;2216;53.806;11.598;2022-07-31T04:11:16;17.50;49.60
4406;DHT22;2216;53.806;11.598;2022-07-31T04:13:42;17.50;49.70
4406;DHT22;2216;53.806;11.598;2022-07-31T04:16:08;17.60;49.70
4406;DHT22;2216;53.806;11.598;2022-07-31T04:18:33;17.60;49.70
4406;DHT22;2216;53.806;11.598;2022-07-31T04:20:59;17.60;49.70
4406;DHT22;2216;53.806;11.598;2022-07-31T04:23:25;17.70;49.70
4406;DHT22;2216;53.806;11.598;2022-07-31T04:25:51;17.70;49.70
4406;DHT22;2216;53.806;11.598;2022-07-31T04:28:17;17.70;49.70
4406;DHT22;2216;53.806;11.598;2022-07-31T04:30:42;17.70;49.70
4406;DHT22;2216;53.806;11.598;2022-07-31T04:33:08;17.70;49.80
4406;DHT22;2216;53.806;11.598;2022-07-31T04:35:34;17.70;49.70
4406;DHT22;2216;53.806;11.598;2022-07-31T04:38:00;17.80;49.80
4406;DHT22;2216;53.806;11.598;2022-07-31T04:40:25;17.80;49.80
4406;DHT22;2216;53.806;11.598;2022-07-31T04:42:53;17.80;49.80
4406;DHT22;2216;53.806;11.598;2022-07-31T04:45:19;17.80;49.90
4406;DHT22;2216;53.806;11.598;2022-07-31T04:47:44;17.90;50.00
4406;DHT22;2216;53.806;11.598;2022-07-31T04:50:10;17.90;49.90
4406;DHT22;2216;53.806;11.598;2022-07-31T04:52:36;18.00;50.00
4406;DHT22;2216;53.806;11.598;2022-07-31T04:55:02;18.00;50.00
4406;DHT22;2216;53.806;11.598;2022-07-31T04:57:28;18.00;49.90
4406;DHT22;2216;53.806;11.598;2022-07-31T04:59:54;18.10;50.00
4406;DHT22;2216;53.806;11.598;2022-07-31T05:02:19;18.10;50.00
4406;DHT22;2216;53.806;11.598;2022-07-31T05:04:45;18.20;50.00
4406;DHT22;2216;53.806;11.598;2022-07-31T05:07:11;18.20;50.00
4406;DHT22;2216;53.806;11.598;2022-07-31T05:09:36;18.20;50.00
4406;DHT22;2216;53.806;11.598;2022-07-31T05:12:02;18.20;50.00
4406;DHT22;2216;53.806;11.598;2022-07-31T05:14:28;18.30;50.10
4406;DHT22;2216;53.806;11.598;2022-07-31T05:16:54;18.30;50.00
4406;DHT22;2216;53.806;11.598;2022-07-31T05:19:20;18.30;50.00
4406;DHT22;2216;53.806;11.598;2022-07-31T05:21:46;18.40;50.00
4406;DHT22;2216;53.806;11.598;2022-07-31T05:24:11;18.40;50.00
4406;DHT22;2216;53.806;11.598;2022-07-31T05:26:37;18.30;50.00
4406;DHT22;2216;53.806;11.598;2022-07-31T05:29:03;18.40;50.00
4406;DHT22;2216;53.806;11.598;2022-07-31T05:31:29;18.40;50.10
4406;DHT22;2216;53.806;11.598;2022-07-31T05:33:55;18.40;50.00
4406;DHT22;2216;53.806;11.598;2022-07-31T05:36:23;18.40;50.10
4406;DHT22;2216;53.806;11.598;2022-07-31T05:38:50;18.50;50.40
4406;DHT22;2216;53.806;11.598;2022-07-31T05:41:16;18.50;50.50
4406;DHT22;2216;53.806;11.598;2022-07-31T05:43:41;18.60;50.40
4406;DHT22;2216;53.806;11.598;2022-07-31T05:46:07;18.60;50.50
4406;DHT22;2216;53.806;11.598;2022-07-31T05:48:33;18.70;51.00
4406;DHT22;2216;53.806;11.598;2022-07-31T05:50:59;18.80;50.70
4406;DHT22;2216;53.806;11.598;2022-07-31T05:53:24;18.80;50.60
4406;DHT22;2216;53.806;11.598;2022-07-31T05:55:51;18.80;50.50
4406;DHT22;2216;53.806;11.598;2022-07-31T05:58:18;18.90;50.50
4406;DHT22;2216;53.806;11.598;2022-07-31T06:00:45;19.00;50.60
4406;DHT22;2216;53.806;11.598;2022-07-31T06:03:13;19.10;50.90
4406;DHT22;2216;53.806;11.598;2022-07-31T06:05:40;19.20;51.40
4406;DHT22;2216;53.806;11.598;2022-07-31T06:08:06;19.30;51.10
4406;DHT22;2216;53.806;11.598;2022-07-31T06:10:34;19.40;51.20
4406;DHT22;2216;53.806;11.598;2022-07-31T06:13:00;19.50;51.00
4406;DHT22;2216;53.806;11.598;2022-07-31T06:15:25;19.60;51.00
4406;DHT22;2216;53.806;11.598;2022-07-31T06:17:51;19.70;50.90
4406;DHT22;2216;53.806;11.598;2022-07-31T06:20:17;19.70;50.90
4406;DHT22;2216;53.806;11.598;2022-07-31T06:22:42;19.70;51.10
4406;DHT22;2216;53.806;11.598;2022-07-31T06:25:09;19.80;51.10
4406;DHT22;2216;53.806;11.598;2022-07-31T06:27:36;19.90;51.20
4406;DHT22;2216;53.806;11.598;2022-07-31T06:30:03;20.00;51.00
4406;DHT22;2216;53.806;11.598;2022-07-31T06:32:33;20.00;51.10
4406;DHT22;2216;53.806;11.598;2022-07-31T06:35:00;20.10;51.00
4406;DHT22;2216;53.806;11.598;2022-07-31T06:37:26;20.10;51.60
4406;DHT22;2216;53.806;11.598;2022-07-31T06:39:52;20.10;51.10
4406;DHT22;2216;53.806;11.598;2022-07-31T06:42:22;20.20;51.00
4406;DHT22;2216;53.806;11.598;2022-07-31T06:44:48;20.30;51.00
4406;DHT22;2216;53.806;11.598;2022-07-31T06:47:15;20.30;50.90
4406;DHT22;2216;53.806;11.598;2022-07-31T06:49:41;20.30;51.00
4406;DHT22;2216;53.806;11.598;2022-07-31T06:52:07;20.30;51.00
4406;DHT22;2216;53.806;11.598;2022-07-31T06:54:33;20.40;51.00
4406;DHT22;2216;53.806;11.598;2022-07-31T06:56:59;20.40;50.90
4406;DHT22;2216;53.806;11.598;2022-07-31T06:59:25;20.50;50.90
4406;DHT22;2216;53.806;11.598;2022-07-31T07:01:50;20.50;51.20
4406;DHT22;2216;53.806;11.598;2022-07-31T07:04:16;20.50;51.00
4406;DHT22;2216;53.806;11.598;2022-07-31T07:06:42;20.60;51.10
4406;DHT22;2216;53.806;11.598;2022-07-31T07:09:07;20.60;51.00
4406;DHT22;2216;53.806;11.598;2022-07-31T07:11:33;20.60;51.00
4406;DHT22;2216;53.806;11.598;2022-07-31T07:13:59;20.80;51.20
4406;DHT22;2216;53.806;11.598;2022-07-31T07:16:25;20.90;51.30
4406;DHT22;2216;53.806;11.598;2022-07-31T07:18:50;21.00;51.40
4406;DHT22;2216;53.806;11.598;2022-07-31T07:21:17;21.10;51.30
4406;DHT22;2216;53.806;11.598;2022-07-31T07:23:42;21.30;51.80
4406;DHT22;2216;53.806;11.598;2022-07-31T07:26:09;21.40;51.60
4406;DHT22;2216;53.806;11.598;2022-07-31T07:28:34;21.60;51.60
4406;DHT22;2216;53.806;11.598;2022-07-31T07:31:02;21.90;51.80
4406;DHT22;2216;53.806;11.598;2022-07-31T07:33:31;22.10;51.90
4406;DHT22;2216;53.806;11.598;2022-07-31T07:35:57;22.30;51.90
4406;DHT22;2216;53.806;11.598;2022-07-31T07:38:23;22.50;51.90
4406;DHT22;2216;53.806;11.598;2022-07-31T07:40:49;22.80;51.70
4406;DHT22;2216;53.806;11.598;2022-07-31T07:43:15;22.90;51.30
4406;DHT22;2216;53.806;11.598;2022-07-31T07:45:41;23.00;51.30
4406;DHT22;2216;53.806;11.598;2022-07-31T07:48:07;23.20;51.60
4406;DHT22;2216;53.806;11.598;2022-07-31T07:50:33;23.30;51.40
4406;DHT22;2216;53.806;11.598;2022-07-31T07:52:59;23.40;51.10
4406;DHT22;2216;53.806;11.598;2022-07-31T07:55:25;23.50;51.10
4406;DHT22;2216;53.806;11.598;2022-07-31T07:57:51;23.60;51.10
4406;DHT22;2216;53.806;11.598;2022-07-31T08:00:17;23.80;51.20
4406;DHT22;2216;53.806;11.598;2022-07-31T08:02:44;24.00;51.20
4406;DHT22;2216;53.806;11.598;2022-07-31T08:05:10;24.30;51.30
4406;DHT22;2216;53.806;11.598;2022-07-31T08:07:38;24.50;51.10
4406;DHT22;2216;53.806;11.598;2022-07-31T08:10:06;24.70;51.00
4406;DHT22;2216;53.806;11.598;2022-07-31T08:12:33;24.80;50.80
4406;DHT22;2216;53.806;11.598;2022-07-31T08:14:59;24.90;50.60
4406;DHT22;2216;53.806;11.598;2022-07-31T08:17:24;25.10;50.50
4406;DHT22;2216;53.806;11.598;2022-07-31T08:19:50;25.20;50.50
4406;DHT22;2216;53.806;11.598;2022-07-31T08:22:16;25.30;50.60
4406;DHT22;2216;53.806;11.598;2022-07-31T08:24:42;25.50;51.10
4406;DHT22;2216;53.806;11.598;2022-07-31T08:27:08;25.60;50.40
4406;DHT22;2216;53.806;11.598;2022-07-31T08:29:53;25.80;50.40
4406;DHT22;2216;53.806;11.598;2022-07-31T08:32:20;25.90;50.20
4406;DHT22;2216;53.806;11.598;2022-07-31T08:34:46;26.10;50.40
4406;DHT22;2216;53.806;11.598;2022-07-31T08:37:12;26.20;50.40
4406;DHT22;2216;53.806;11.598;2022-07-31T08:39:38;26.40;50.50
4406;DHT22;2216;53.806;11.598;2022-07-31T08:42:05;26.70;50.50
4406;DHT22;2216;53.806;11.598;2022-07-31T08:44:31;26.90;50.50
4406;DHT22;2216;53.806;11.598;2022-07-31T08:47:00;27.10;50.40
4406;DHT22;2216;53.806;11.598;2022-07-31T08:49:28;27.30;50.10
4406;DHT22;2216;53.806;11.598;2022-07-31T08:51:56;27.50;50.00
4406;DHT22;2216;53.806;11.598;2022-07-31T08:54:24;27.70;49.90
4406;DHT22;2216;53.806;11.598;2022-07-31T08:56:50;27.70;49.70
4406;DHT22;2216;53.806;11.598;2022-07-31T08:59:19;27.90;49.80
4406;DHT22;2216;53.806;11.598;2022-07-31T09:01:46;28.00;49.80
4406;DHT22;2216;53.806;11.598;2022-07-31T09:04:11;28.10;49.80
4406;DHT22;2216;53.806;11.598;2022-07-31T09:06:37;28.30;49.70
4406;DHT22;2216;53.806;11.598;2022-07-31T09:09:04;28.40;49.30
4406;DHT22;2216;53.806;11.598;2022-07-31T09:11:30;28.60;49.60
4406;DHT22;2216;53.806;11.598;2022-07-31T09:13:58;28.70;49.60
4406;DHT22;2216;53.806;11.598;2022-07-31T09:16:29;28.90;49.60
4406;DHT22;2216;53.806;11.598;2022-07-31T09:18:56;29.00;49.30
4406;DHT22;2216;53.806;11.598;2022-07-31T09:21:37;29.10;49.00
4406;DHT22;2216;53.806;11.598;2022-07-31T09:24:04;29.20;49.00
4406;DHT22;2216;53.806;11.598;2022-07-31T09:26:34;29.20;48.80
4406;DHT22;2216;53.806;11.598;2022-07-31T09:29:01;29.30;48.40
4406;DHT22;2216;53.806;11.598;2022-07-31T09:31:33;29.30;48.50
4406;DHT22;2216;53.806;11.598;2022-07-31T09:34:00;29.20;48.40
4406;DHT22;2216;53.806;11.598;2022-07-31T09:36:26;29.20;48.60
4406;DHT22;2216;53.806;11.598;2022-07-31T09:38:52;29.30;48.90
4406;DHT22;2216;53.806;11.598;2022-07-31T09:41:19;29.30;48.80
4406;DHT22;2216;53.806;11.598;2022-07-31T09:43:56;29.40;49.00
4406;DHT22;2216;53.806;11.598;2022-07-31T09:46:44;29.60;49.00
4406;DHT22;2216;53.806;11.598;2022-07-31T09:49:10;29.80;49.10
4406;DHT22;2216;53.806;11.598;2022-07-31T09:51:38;30.00;49.10
4406;DHT22;2216;53.806;11.598;2022-07-31T09:54:21;30.30;49.10
4406;DHT22;2216;53.806;11.598;2022-07-31T09:56:48;30.50;48.80
4406;DHT22;2216;53.806;11.598;2022-07-31T09:59:15;30.60;48.80
4406;DHT22;2216;53.806;11.598;2022-07-31T10:01:42;30.80;48.80
4406;DHT22;2216;53.806;11.598;2022-07-31T10:04:10;30.90;48.60
4406;DHT22;2216;53.806;11.598;2022-07-31T10:06:37;31.00;48.60
4406;DHT22;2216;53.806;11.598;2022-07-31T10:09:05;31.10;48.50
4406;DHT22;2216;53.806;11.598;2022-07-31T10:11:32;31.20;48.40
4406;DHT22;2216;53.806;11.598;2022-07-31T10:14:00;31.30;48.50
4406;DHT22;2216;53.806;11.598;2022-07-31T10:16:31;31.40;48.30
4406;DHT22;2216;53.806;11.598;2022-07-31T10:19:02;31.50;48.20
4406;DHT22;2216;53.806;11.598;2022-07-31T10:21:38;31.50;48.00
4406;DHT22;2216;53.806;11.598;2022-07-31T10:24:09;31.50;47.90
4406;DHT22;2216;53.806;11.598;2022-07-31T10:26:36;31.60;47.90
4406;DHT22;2216;53.806;11.598;2022-07-31T10:29:03;31.60;47.90
4406;DHT22;2216;53.806;11.598;2022-07-31T10:31:29;31.70;47.50
4406;DHT22;2216;53.806;11.598;2022-07-31T10:33:56;31.70;47.90
4406;DHT22;2216;53.806;11.598;2022-07-31T10:36:28;31.90;47.80
4406;DHT22;2216;53.806;11.598;2022-07-31T10:39:09;31.90;47.90
4406;DHT22;2216;53.806;11.598;2022-07-31T10:41:51;32.00;47.80
4406;DHT22;2216;53.806;11.598;2022-07-31T10:47:15;32.10;47.60
4406;DHT22;2216;53.806;11.598;2022-07-31T10:49:44;32.20;47.30
4406;DHT22;2216;53.806;11.598;2022-07-31T10:52:10;32.30;48.50
4406;DHT22;2216;53.806;11.598;2022-07-31T10:54:38;32.40;47.80
4406;DHT22;2216;53.806;11.598;2022-07-31T10:57:04;32.50;47.40
4406;DHT22;2216;53.806;11.598;2022-07-31T10:59:30;32.60;47.60
4406;DHT22;2216;53.806;11.598;2022-07-31T11:01:56;32.70;47.50
4406;DHT22;2216;53.806;11.598;2022-07-31T11:04:27;32.60;47.30
4406;DHT22;2216;53.806;11.598;2022-07-31T11:06:54;32.60;47.10
4406;DHT22;2216;53.806;11.598;2022-07-31T11:09:21;32.60;47.20
4406;DHT22;2216;53.806;11.598;2022-07-31T11:11:51;32.40;47.00
4406;DHT22;2216;53.806;11.598;2022-07-31T11:14:17;32.40;47.10
4406;DHT22;2216;53.806;11.598;2022-07-31T11:16:53;32.40;47.00
4406;DHT22;2216;53.806;11.598;2022-07-31T11:19:20;32.40;47.00
4406;DHT22;2216;53.806;11.598;2022-07-31T11:21:46;32.50;46.70
4406;DHT22;2216;53.806;11.598;2022-07-31T11:24:17;32.60;46.80
4406;DHT22;2216;53.806;11.598;2022-07-31T11:26:51;32.80;47.10
4406;DHT22;2216;53.806;11.598;2022-07-31T11:29:31;32.60;47.00
4406;DHT22;2216;53.806;11.598;2022-07-31T11:34:51;32.70;47.00
4406;DHT22;2216;53.806;11.598;2022-07-31T11:37:25;32.70;46.80
4406;DHT22;2216;53.806;11.598;2022-07-31T11:39:54;32.70;46.70
4406;DHT22;2216;53.806;11.598;2022-07-31T11:42:22;32.70;46.80
4406;DHT22;2216;53.806;11.598;2022-07-31T11:44:49;32.70;46.50
4406;DHT22;2216;53.806;11.598;2022-07-31T11:47:15;32.70;46.70
4406;DHT22;2216;53.806;11.598;2022-07-31T11:49:40;32.70;46.60
4406;DHT22;2216;53.806;11.598;2022-07-31T11:52:08;32.60;46.60
4406;DHT22;2216;53.806;11.598;2022-07-31T11:54:37;32.60;46.60
4406;DHT22;2216;53.806;11.598;2022-07-31T11:57:04;32.60;46.40
4406;DHT22;2216;53.806;11.598;2022-07-31T11:59:35;32.60;46.60
4406;DHT22;2216;53.806;11.598;2022-07-31T12:04:35;32.60;46.50
4406;DHT22;2216;53.806;11.598;2022-07-31T12:07:03;32.50;46.40
4406;DHT22;2216;53.806;11.598;2022-07-31T12:09:30;32.50;46.40
4406;DHT22;2216;53.806;11.598;2022-07-31T12:11:58;32.40;46.20
4406;DHT22;2216;53.806;11.598;2022-07-31T12:14:37;32.40;46.50
4406;DHT22;2216;53.806;11.598;2022-07-31T12:17:06;32.40;46.20
4406;DHT22;2216;53.806;11.598;2022-07-31T12:19:34;32.40;45.80
4406;DHT22;2216;53.806;11.598;2022-07-31T12:22:18;32.40;46.10
4406;DHT22;2216;53.806;11.598;2022-07-31T12:24:45;32.30;45.70
4406;DHT22;2216;53.806;11.598;2022-07-31T12:27:15;32.40;45.70
4406;DHT22;2216;53.806;11.598;2022-07-31T12:29:43;32.40;45.80
4406;DHT22;2216;53.806;11.598;2022-07-31T12:32:09;32.40;46.00
4406;DHT22;2216;53.806;11.598;2022-07-31T12:34:40;32.40;46.60
4406;DHT22;2216;53.806;11.598;2022-07-31T12:37:15;32.50;46.20
4406;DHT22;2216;53.806;11.598;2022-07-31T12:44:56;32.60;45.80
4406;DHT22;2216;53.806;11.598;2022-07-31T12:47:26;32.60;45.80
4406;DHT22;2216;53.806;11.598;2022-07-31T12:49:56;32.70;45.80
4406;DHT22;2216;53.806;11.598;2022-07-31T12:52:23;32.70;45.70
4406;DHT22;2216;53.806;11.598;2022-07-31T12:54:52;32.70;45.70
4406;DHT22;2216;53.806;11.598;2022-07-31T12:57:18;32.70;45.70
4406;DHT22;2216;53.806;11.598;2022-07-31T12:59:43;32.70;45.80
4406;DHT22;2216;53.806;11.598;2022-07-31T13:02:09;32.80;45.80
4406;DHT22;2216;53.806;11.598;2022-07-31T13:04:35;32.80;45.80
4406;DHT22;2216;53.806;11.598;2022-07-31T13:07:01;32.90;45.70
4406;DHT22;2216;53.806;11.598;2022-07-31T13:09:27;32.90;45.70
4406;DHT22;2216;53.806;11.598;2022-07-31T13:11:53;32.90;45.00
4406;DHT22;2216;53.806;11.598;2022-07-31T13:14:20;33.00;45.30
4406;DHT22;2216;53.806;11.598;2022-07-31T13:16:48;33.00;44.20
4406;DHT22;2216;53.806;11.598;2022-07-31T13:19:14;33.00;45.20
4406;DHT22;2216;53.806;11.598;2022-07-31T13:21:40;32.80;45.10
4406;DHT22;2216;53.806;11.598;2022-07-31T13:24:07;32.90;45.30
4406;DHT22;2216;53.806;11.598;2022-07-31T13:26:34;32.90;45.30
4406;DHT22;2216;53.806;11.598;2022-07-31T13:29:00;32.90;45.30
4406;DHT22;2216;53.806;11.598;2022-07-31T13:31:26;32.90;45.20
4406;DHT22;2216;53.806;11.598;2022-07-31T13:33:54;32.80;45.30
4406;DHT22;2216;53.806;11.598;2022-07-31T13:36:20;32.80;45.20
4406;DHT22;2216;53.806;11.598;2022-07-31T13:38:46;32.70;45.00
4406;DHT22;2216;53.806;11.598;2022-07-31T13:41:12;32.60;44.90
4406;DHT22;2216;53.806;11.598;2022-07-31T13:43:50;32.60;44.90
4406;DHT22;2216;53.806;11.598;2022-07-31T13:46:20;32.40;45.00
4406;DHT22;2216;53.806;11.598;2022-07-31T13:48:46;32.30;45.00
4406;DHT22;2216;53.806;11.598;2022-07-31T13:51:12;32.20;44.90
4406;DHT22;2216;53.806;11.598;2022-07-31T13:53:38;32.00;44.80
4406;DHT22;2216;53.806;11.598;2022-07-31T13:56:04;31.90;45.00
4406;DHT22;2216;53.806;11.598;2022-07-31T13:58:30;32.00;45.20
4406;DHT22;2216;53.806;11.598;2022-07-31T14:00:56;31.80;45.20
4406;DHT22;2216;53.806;11.598;2022-07-31T14:03:23;31.70;45.20
4406;DHT22;2216;53.806;11.598;2022-07-31T14:05:49;31.60;45.10
4406;DHT22;2216;53.806;11.598;2022-07-31T14:08:16;31.60;45.10
4406;DHT22;2216;53.806;11.598;2022-07-31T14:10:43;31.50;45.10
4406;DHT22;2216;53.806;11.598;2022-07-31T14:13:09;31.40;45.10
4406;DHT22;2216;53.806;11.598;2022-07-31T14:15:35;31.30;45.50
4406;DHT22;2216;53.806;11.598;2022-07-31T14:18:01;31.20;45.00
4406;DHT22;2216;53.806;11.598;2022-07-31T14:20:27;31.00;45.00
4406;DHT22;2216;53.806;11.598;2022-07-31T14:22:53;30.90;45.10
4406;DHT22;2216;53.806;11.598;2022-07-31T14:25:19;30.80;45.20
4406;DHT22;2216;53.806;11.598;2022-07-31T14:27:45;30.70;45.10
4406;DHT22;2216;53.806;11.598;2022-07-31T14:30:11;30.60;45.20
4406;DHT22;2216;53.806;11.598;2022-07-31T14:32:39;30.50;45.20
4406;DHT22;2216;53.806;11.598;2022-07-31T14:35:06;30.40;45.20
4406;DHT22;2216;53.806;11.598;2022-07-31T14:37:32;30.40;45.00
4406;DHT22;2216;53.806;11.598;2022-07-31T14:39:58;30.30;45.10
4406;DHT22;2216;53.806;11.598;2022-07-31T14:42:24;30.20;45.30
4406;DHT22;2216;53.806;11.598;2022-07-31T14:44:49;30.20;45.40
4406;DHT22;2216;53.806;11.598;2022-07-31T14:47:16;30.10;45.40
4406;DHT22;2216;53.806;11.598;2022-07-31T14:49:42;30.10;45.60
4406;DHT22;2216;53.806;11.598;2022-07-31T14:52:07;30.10;45.10
4406;DHT22;2216;53.806;11.598;2022-07-31T14:54:33;30.10;45.30
4406;DHT22;2216;53.806;11.598;2022-07-31T14:56:59;30.10;45.40
4406;DHT22;2216;53.806;11.598;2022-07-31T14:59:28;30.10;45.30
4406;DHT22;2216;53.806;11.598;2022-07-31T15:01:55;30.10;45.50
4406;DHT22;2216;53.806;11.598;2022-07-31T15:04:21;30.10;45.50
4406;DHT22;2216;53.806;11.598;2022-07-31T15:06:46;30.10;45.40
4406;DHT22;2216;53.806;11.598;2022-07-31T15:09:13;30.00;45.40
4406;DHT22;2216;53.806;11.598;2022-07-31T15:11:39;30.00;45.40
4406;DHT22;2216;53.806;11.598;2022-07-31T15:14:05;30.00;45.40
4406;DHT22;2216;53.806;11.598;2022-07-31T15:16:30;29.90;45.30
4406;DHT22;2216;53.806;11.598;2022-07-31T15:18:59;29.80;45.20
4406;DHT22;2216;53.806;11.598;2022-07-31T15:21:25;29.70;45.30
4406;DHT22;2216;53.806;11.598;2022-07-31T15:23:51;29.70;45.30
4406;DHT22;2216;53.806;11.598;2022-07-31T15:26:17;29.60;45.30
4406;DHT22;2216;53.806;11.598;2022-07-31T15:28:43;29.60;45.40
4406;DHT22;2216;53.806;11.598;2022-07-31T15:31:10;29.60;45.50
4406;DHT22;2216;53.806;11.598;2022-07-31T15:33:35;29.50;45.40
4406;DHT22;2216;53.806;11.598;2022-07-31T15:36:02;29.50;45.50
4406;DHT22;2216;53.806;11.598;2022-07-31T15:38:28;29.50;45.50
4406;DHT22;2216;53.806;11.598;2022-07-31T15:40:54;29.50;45.60
4406;DHT22;2216;53.806;11.598;2022-07-31T15:43:20;29.50;45.50
4406;DHT22;2216;53.806;11.598;2022-07-31T15:45:45;29.60;45.60
4406;DHT22;2216;53.806;11.598;2022-07-31T15:48:11;29.60;45.60
4406;DHT22;2216;53.806;11.598;2022-07-31T15:50:37;29.50;45.40
4406;DHT22;2216;53.806;11.598;2022-07-31T15:53:02;29.50;45.30
4406;DHT22;2216;53.806;11.598;2022-07-31T15:55:28;29.50;45.40
4406;DHT22;2216;53.806;11.598;2022-07-31T15:57:55;29.40;45.50
4406;DHT22;2216;53.806;11.598;2022-07-31T16:00:21;29.40;45.20
4406;DHT22;2216;53.806;11.598;2022-07-31T16:02:47;29.10;44.80
4406;DHT22;2216;53.806;11.598;2022-07-31T16:05:14;29.10;44.80
4406;DHT22;2216;53.806;11.598;2022-07-31T16:07:41;29.00;44.80